sensor_id;sensor_type;location;lat;lon;timestamp;pressure;altitude;pressure_sealevel;temperature;humidity
36392;BME280;22639;42.690;23.356;2022-07-23T00:00:16;95225.19;;;21.66;100.00
36392;BME280;22639;42.690;23.356;2022-07-23T00:02:41;95225.47;;;21.58;100.00
36392;BME280;22639;42.690;23.356;2022-07-23T00:05:07;95219.22;;;21.52;99.95
36392;BME280;22639;42.690;23.356;2022-07-23T00:07:33;95229.88;;;21.46;99.71
36392;BME280;22639;42.690;23.356;2022-07-23T00:09:58;95220.06;;;21.35;99.99
36392;BME280;22639;42.690;23.356;2022-07-23T00:12:24;95230.31;;;21.43;100.00
36392;BME280;22639;42.690;23.356;2022-07-23T00:14:50;95235.28;;;21.33;100.00
36392;BME280;22639;42.690;23.356;2022-07-23T00:17:15;95238.47;;;21.23;100.00
36392;BME280;22639;42.690;23.356;2022-07-23T00:19:40;95235.66;;;21.18;100.00
36392;BME280;22639;42.690;23.356;2022-07-23T00:22:06;95236.91;;;21.16;100.00
36392;BME280;22639;42.690;23.356;2022-07-23T00:24:31;95243.25;;;21.08;100.00
36392;BME280;22639;42.690;23.356;2022-07-23T00:26:57;95246.56;;;21.04;98.72
36392;BME280;22639;42.690;23.356;2022-07-23T00:29:22;95240.72;;;21.02;97.86
36392;BME280;22639;42.690;23.356;2022-07-23T00:31:48;95236.59;;;21.06;96.13
36392;BME280;22639;42.690;23.356;2022-07-23T00:34:13;95240.91;;;21.00;94.40
36392;BME280;22639;42.690;23.356;2022-07-23T00:36:38;95251.38;;;20.89;93.90
36392;BME280;22639;42.690;23.356;2022-07-23T00:39:04;95245.56;;;20.81;93.37
36392;BME280;22639;42.690;23.356;2022-07-23T00:41:30;95245.59;;;20.74;94.37
36392;BME280;22639;42.690;23.356;2022-07-23T00:43:55;95240.38;;;20.68;94.68
36392;BME280;22639;42.690;23.356;2022-07-23T00:46:22;95247.06;;;20.70;94.44
36392;BME280;22639;42.690;23.356;2022-07-23T00:48:48;95244.03;;;20.67;94.62
36392;BME280;22639;42.690;23.356;2022-07-23T00:51:17;95242.09;;;20.56;95.00
36392;BME280;22639;42.690;23.356;2022-07-23T00:53:44;95247.00;;;20.52;95.81
36392;BME280;22639;42.690;23.356;2022-07-23T00:56:10;95240.38;;;20.43;97.75
36392;BME280;22639;42.690;23.356;2022-07-23T00:58:36;95246.31;;;20.32;100.00
36392;BME280;22639;42.690;23.356;2022-07-23T01:01:02;95233.84;;;20.21;100.00
36392;BME280;22639;42.690;23.356;2022-07-23T01:03:27;95244.41;;;20.21;100.00
36392;BME280;22639;42.690;23.356;2022-07-23T01:05:53;95234.28;;;20.18;100.00
36392;BME280;22639;42.690;23.356;2022-07-23T01:08:19;95237.47;;;20.27;100.00
36392;BME280;22639;42.690;23.356;2022-07-23T01:10:46;95244.78;;;20.25;100.00
36392;BME280;22639;42.690;23.356;2022-07-23T01:13:12;95242.34;;;20.23;100.00
36392;BME280;22639;42.690;23.356;2022-07-23T01:15:38;95242.09;;;20.31;100.00
36392;BME280;22639;42.690;23.356;2022-07-23T01:18:05;95237.84;;;20.30;100.00
36392;BME280;22639;42.690;23.356;2022-07-23T01:20:31;95238.88;;;20.29;100.00
36392;BME280;22639;42.690;23.356;2022-07-23T01:22:57;95243.94;;;20.24;100.00
36392;BME280;22639;42.690;23.356;2022-07-23T01:25:23;95242.75;;;20.27;100.00
36392;BME280;22639;42.690;23.356;2022-07-23T01:27:48;95239.13;;;20.21;100.00
36392;BME280;22639;42.690;23.356;2022-07-23T01:30:15;95238.91;;;20.23;100.00
36392;BME280;22639;42.690;23.356;2022-07-23T01:32:40;95235.84;;;20.26;100.00
36392;BME280;22639;42.690;23.356;2022-07-23T01:35:07;95237.47;;;20.27;100.00
36392;BME280;22639;42.690;23.356;2022-07-23T01:37:32;95229.41;;;20.15;100.00
36392;BME280;22639;42.690;23.356;2022-07-23T01:39:58;95216.94;;;20.04;100.00
36392;BME280;22639;42.690;23.356;2022-07-23T01:42:24;95232.28;;;20.14;100.00
36392;BME280;22639;42.690;23.356;2022-07-23T01:44:50;95234.28;;;20.18;100.00
36392;BME280;22639;42.690;23.356;2022-07-23T01:47:16;95235.38;;;20.04;100.00
36392;BME280;22639;42.690;23.356;2022-07-23T01:49:41;95227.66;;;20.09;100.00
36392;BME280;22639;42.690;23.356;2022-07-23T01:52:07;95237.94;;;20.17;100.00
36392;BME280;22639;42.690;23.356;2022-07-23T01:54:36;95236.69;;;20.20;100.00
36392;BME280;22639;42.690;23.356;2022-07-23T01:57:03;95238.94;;;20.16;100.00
36392;BME280;22639;42.690;23.356;2022-07-23T01:59:29;95239.16;;;20.15;100.00
36392;BME280;22639;42.690;23.356;2022-07-23T02:01:54;95242.41;;;20.17;100.00
36392;BME280;22639;42.690;23.356;2022-07-23T02:04:22;95238.81;;;20.05;100.00
36392;BME280;22639;42.690;23.356;2022-07-23T02:06:47;95235.31;;;20.11;100.00
36392;BME280;22639;42.690;23.356;2022-07-23T02:09:13;95235.97;;;20.06;100.00
36392;BME280;22639;42.690;23.356;2022-07-23T02:11:39;95221.81;;;20.01;100.00
36392;BME280;22639;42.690;23.356;2022-07-23T02:14:04;95241.06;;;20.01;100.00
36392;BME280;22639;42.690;23.356;2022-07-23T02:16:30;95240.22;;;20.07;100.00
36392;BME280;22639;42.690;23.356;2022-07-23T02:18:55;95242.13;;;19.88;100.00
36392;BME280;22639;42.690;23.356;2022-07-23T02:21:20;95239.91;;;19.91;100.00
36392;BME280;22639;42.690;23.356;2022-07-23T02:23:46;95243.75;;;19.89;100.00
36392;BME280;22639;42.690;23.356;2022-07-23T02:26:12;95251.06;;;19.87;100.00
36392;BME280;22639;42.690;23.356;2022-07-23T02:28:37;95248.00;;;19.83;100.00
36392;BME280;22639;42.690;23.356;2022-07-23T02:31:02;95241.53;;;19.86;100.00
36392;BME280;22639;42.690;23.356;2022-07-23T02:33:28;95245.75;;;19.93;100.00
36392;BME280;22639;42.690;23.356;2022-07-23T02:35:54;95241.09;;;19.89;100.00
36392;BME280;22639;42.690;23.356;2022-07-23T02:38:20;95241.09;;;19.89;100.00
36392;BME280;22639;42.690;23.356;2022-07-23T02:40:45;95262.25;;;19.76;100.00
36392;BME280;22639;42.690;23.356;2022-07-23T02:43:11;52988.91;;;-141.22;100.00
36392;BME280;22639;42.690;23.356;2022-07-23T02:45:36;52988.91;;;-141.22;100.00
36392;BME280;22639;42.690;23.356;2022-07-23T02:48:02;52988.91;;;-141.22;100.00
36392;BME280;22639;42.690;23.356;2022-07-23T02:50:28;52988.91;;;-141.22;100.00
36392;BME280;22639;42.690;23.356;2022-07-23T02:52:53;52988.91;;;-141.22;100.00
36392;BME280;22639;42.690;23.356;2022-07-23T02:55:18;52988.91;;;-141.22;100.00
36392;BME280;22639;42.690;23.356;2022-07-23T02:57:44;52988.91;;;-141.22;100.00
36392;BME280;22639;42.690;23.356;2022-07-23T03:00:10;52988.91;;;-141.22;100.00
36392;BME280;22639;42.690;23.356;2022-07-23T03:02:35;52988.91;;;-141.22;100.00
36392;BME280;22639;42.690;23.356;2022-07-23T03:05:01;52988.91;;;-141.22;100.00
36392;BME280;22639;42.690;23.356;2022-07-23T03:07:26;52988.91;;;-141.22;100.00
36392;BME280;22639;42.690;23.356;2022-07-23T03:09:51;52988.91;;;-141.22;100.00
36392;BME280;22639;42.690;23.356;2022-07-23T03:12:17;52988.91;;;-141.22;100.00
36392;BME280;22639;42.690;23.356;2022-07-23T03:14:42;52988.91;;;-141.22;100.00
36392;BME280;22639;42.690;23.356;2022-07-23T03:17:08;52988.91;;;-141.22;100.00
36392;BME280;22639;42.690;23.356;2022-07-23T03:19:34;52988.91;;;-141.22;100.00
36392;BME280;22639;42.690;23.356;2022-07-23T03:22:00;52988.91;;;-141.22;100.00
36392;BME280;22639;42.690;23.356;2022-07-23T03:24:25;52988.91;;;-141.22;100.00
36392;BME280;22639;42.690;23.356;2022-07-23T03:27:10;52988.91;;;-141.22;100.00
36392;BME280;22639;42.690;23.356;2022-07-23T03:29:36;52988.91;;;-141.22;100.00
36392;BME280;22639;42.690;23.356;2022-07-23T03:32:03;52988.91;;;-141.22;100.00
36392;BME280;22639;42.690;23.356;2022-07-23T03:34:28;52988.91;;;-141.22;100.00
36392;BME280;22639;42.690;23.356;2022-07-23T03:36:54;52988.91;;;-141.22;100.00
36392;BME280;22639;42.690;23.356;2022-07-23T03:39:19;52988.91;;;-141.22;100.00
36392;BME280;22639;42.690;23.356;2022-07-23T03:41:45;52988.91;;;-141.22;100.00
36392;BME280;22639;42.690;23.356;2022-07-23T03:44:10;52988.91;;;-141.22;100.00
36392;BME280;22639;42.690;23.356;2022-07-23T03:46:35;52988.91;;;-141.22;100.00
36392;BME280;22639;42.690;23.356;2022-07-23T03:49:01;52988.91;;;-141.22;100.00
36392;BME280;22639;42.690;23.356;2022-07-23T03:51:26;52988.91;;;-141.22;100.00
36392;BME280;22639;42.690;23.356;2022-07-23T03:53:52;52988.91;;;-141.22;100.00
36392;BME280;22639;42.690;23.356;2022-07-23T03:56:17;52988.91;;;-141.22;100.00
36392;BME280;22639;42.690;23.356;2022-07-23T03:58:42;52988.91;;;-141.22;100.00
36392;BME280;22639;42.690;23.356;2022-07-23T04:01:08;52988.91;;;-141.22;100.00
36392;BME280;22639;42.690;23.356;2022-07-23T04:03:33;52988.91;;;-141.22;100.00
36392;BME280;22639;42.690;23.356;2022-07-23T04:05:59;52988.91;;;-141.22;100.00
36392;BME280;22639;42.690;23.356;2022-07-23T04:08:24;52988.91;;;-141.22;100.00
36392;BME280;22639;42.690;23.356;2022-07-23T04:10:50;52988.91;;;-141.22;100.00
36392;BME280;22639;42.690;23.356;2022-07-23T04:13:16;52988.91;;;-141.22;100.00
36392;BME280;22639;42.690;23.356;2022-07-23T04:15:41;52988.91;;;-141.22;100.00
36392;BME280;22639;42.690;23.356;2022-07-23T04:18:07;52988.91;;;-141.22;100.00
36392;BME280;22639;42.690;23.356;2022-07-23T04:20:33;52988.91;;;-141.22;100.00
36392;BME280;22639;42.690;23.356;2022-07-23T04:22:58;52988.91;;;-141.22;100.00
36392;BME280;22639;42.690;23.356;2022-07-23T04:25:24;52988.91;;;-141.22;100.00
36392;BME280;22639;42.690;23.356;2022-07-23T04:27:49;52988.91;;;-141.22;100.00
36392;BME280;22639;42.690;23.356;2022-07-23T04:30:15;52988.91;;;-141.22;100.00
36392;BME280;22639;42.690;23.356;2022-07-23T04:32:40;52988.91;;;-141.22;100.00
36392;BME280;22639;42.690;23.356;2022-07-23T04:35:06;52988.91;;;-141.22;100.00
36392;BME280;22639;42.690;23.356;2022-07-23T04:37:31;52988.91;;;-141.22;100.00
36392;BME280;22639;42.690;23.356;2022-07-23T04:39:57;52988.91;;;-141.22;100.00
36392;BME280;22639;42.690;23.356;2022-07-23T04:42:22;52988.91;;;-141.22;100.00
36392;BME280;22639;42.690;23.356;2022-07-23T04:44:48;52988.91;;;-141.22;100.00
36392;BME280;22639;42.690;23.356;2022-07-23T04:47:13;52988.91;;;-141.22;100.00
36392;BME280;22639;42.690;23.356;2022-07-23T04:49:38;52988.91;;;-141.22;100.00
36392;BME280;22639;42.690;23.356;2022-07-23T04:52:04;52988.91;;;-141.22;100.00
36392;BME280;22639;42.690;23.356;2022-07-23T04:54:29;52988.91;;;-141.22;100.00
36392;BME280;22639;42.690;23.356;2022-07-23T04:56:55;52988.91;;;-141.22;100.00
36392;BME280;22639;42.690;23.356;2022-07-23T04:59:20;52988.91;;;-141.22;100.00
36392;BME280;22639;42.690;23.356;2022-07-23T05:01:46;52988.91;;;-141.22;100.00
36392;BME280;22639;42.690;23.356;2022-07-23T05:04:11;52988.91;;;-141.22;100.00
36392;BME280;22639;42.690;23.356;2022-07-23T05:06:37;52988.91;;;-141.22;100.00
36392;BME280;22639;42.690;23.356;2022-07-23T05:09:02;52988.91;;;-141.22;100.00
36392;BME280;22639;42.690;23.356;2022-07-23T05:11:27;52988.91;;;-141.22;100.00
36392;BME280;22639;42.690;23.356;2022-07-23T05:13:53;52988.91;;;-141.22;100.00
36392;BME280;22639;42.690;23.356;2022-07-23T05:16:18;52988.91;;;-141.22;100.00
36392;BME280;22639;42.690;23.356;2022-07-23T05:18:44;52988.91;;;-141.22;100.00
36392;BME280;22639;42.690;23.356;2022-07-23T05:21:09;52988.91;;;-141.22;100.00
36392;BME280;22639;42.690;23.356;2022-07-23T05:23:35;52988.91;;;-141.22;100.00
36392;BME280;22639;42.690;23.356;2022-07-23T05:26:00;52988.91;;;-141.22;100.00
36392;BME280;22639;42.690;23.356;2022-07-23T05:28:25;52988.91;;;-141.22;100.00
36392;BME280;22639;42.690;23.356;2022-07-23T05:30:51;52988.91;;;-141.22;100.00
36392;BME280;22639;42.690;23.356;2022-07-23T05:33:19;52988.91;;;-141.22;100.00
36392;BME280;22639;42.690;23.356;2022-07-23T05:35:45;52988.91;;;-141.22;100.00
36392;BME280;22639;42.690;23.356;2022-07-23T05:38:10;52988.91;;;-141.22;100.00
36392;BME280;22639;42.690;23.356;2022-07-23T05:40:36;52988.91;;;-141.22;100.00
36392;BME280;22639;42.690;23.356;2022-07-23T05:43:01;52988.91;;;-141.22;100.00
36392;BME280;22639;42.690;23.356;2022-07-23T05:45:27;52988.91;;;-141.22;100.00
36392;BME280;22639;42.690;23.356;2022-07-23T05:47:52;52988.91;;;-141.22;100.00
36392;BME280;22639;42.690;23.356;2022-07-23T05:50:18;52988.91;;;-141.22;100.00
36392;BME280;22639;42.690;23.356;2022-07-23T05:52:43;52988.91;;;-141.22;100.00
36392;BME280;22639;42.690;23.356;2022-07-23T05:55:10;52988.91;;;-141.22;100.00
36392;BME280;22639;42.690;23.356;2022-07-23T05:57:36;52988.91;;;-141.22;100.00
36392;BME280;22639;42.690;23.356;2022-07-23T06:00:03;52988.91;;;-141.22;100.00
36392;BME280;22639;42.690;23.356;2022-07-23T06:02:29;52988.91;;;-141.22;100.00
36392;BME280;22639;42.690;23.356;2022-07-23T06:04:54;52988.91;;;-141.22;100.00
36392;BME280;22639;42.690;23.356;2022-07-23T06:07:20;52988.91;;;-141.22;100.00
36392;BME280;22639;42.690;23.356;2022-07-23T06:09:45;52988.91;;;-141.22;100.00
36392;BME280;22639;42.690;23.356;2022-07-23T06:12:12;52988.91;;;-141.22;100.00
36392;BME280;22639;42.690;23.356;2022-07-23T06:14:37;52988.91;;;-141.22;100.00
36392;BME280;22639;42.690;23.356;2022-07-23T06:17:03;52988.91;;;-141.22;100.00
36392;BME280;22639;42.690;23.356;2022-07-23T06:19:28;52988.91;;;-141.22;100.00
36392;BME280;22639;42.690;23.356;2022-07-23T06:21:54;52988.91;;;-141.22;100.00
36392;BME280;22639;42.690;23.356;2022-07-23T06:24:19;52988.91;;;-141.22;100.00
36392;BME280;22639;42.690;23.356;2022-07-23T06:26:44;52988.91;;;-141.22;100.00
36392;BME280;22639;42.690;23.356;2022-07-23T06:29:10;52988.91;;;-141.22;100.00
36392;BME280;22639;42.690;23.356;2022-07-23T06:31:36;52988.91;;;-141.22;100.00
36392;BME280;22639;42.690;23.356;2022-07-23T06:34:02;52988.91;;;-141.22;100.00
36392;BME280;22639;42.690;23.356;2022-07-23T06:36:28;52988.91;;;-141.22;100.00
36392;BME280;22639;42.690;23.356;2022-07-23T06:38:53;52988.91;;;-141.22;100.00
36392;BME280;22639;42.690;23.356;2022-07-23T06:41:19;52988.91;;;-141.22;100.00
36392;BME280;22639;42.690;23.356;2022-07-23T06:43:44;52988.91;;;-141.22;100.00
36392;BME280;22639;42.690;23.356;2022-07-23T06:46:09;52988.91;;;-141.22;100.00
36392;BME280;22639;42.690;23.356;2022-07-23T06:48:35;52988.91;;;-141.22;100.00
36392;BME280;22639;42.690;23.356;2022-07-23T06:51:01;52988.91;;;-141.22;100.00
36392;BME280;22639;42.690;23.356;2022-07-23T06:53:27;52988.91;;;-141.22;100.00
36392;BME280;22639;42.690;23.356;2022-07-23T06:55:53;52988.91;;;-141.22;100.00
36392;BME280;22639;42.690;23.356;2022-07-23T06:58:18;52988.91;;;-141.22;100.00
36392;BME280;22639;42.690;23.356;2022-07-23T07:00:44;52988.91;;;-141.22;100.00
36392;BME280;22639;42.690;23.356;2022-07-23T07:03:10;52988.91;;;-141.22;100.00
36392;BME280;22639;42.690;23.356;2022-07-23T07:05:35;52988.91;;;-141.22;100.00
36392;BME280;22639;42.690;23.356;2022-07-23T07:08:01;52988.91;;;-141.22;100.00
36392;BME280;22639;42.690;23.356;2022-07-23T07:10:26;52988.91;;;-141.22;100.00
36392;BME280;22639;42.690;23.356;2022-07-23T07:12:51;52988.91;;;-141.22;100.00
36392;BME280;22639;42.690;23.356;2022-07-23T07:15:17;52988.91;;;-141.22;100.00
36392;BME280;22639;42.690;23.356;2022-07-23T07:17:43;52988.91;;;-141.22;100.00
36392;BME280;22639;42.690;23.356;2022-07-23T07:20:09;52988.91;;;-141.22;100.00
36392;BME280;22639;42.690;23.356;2022-07-23T07:22:35;52988.91;;;-141.22;100.00
36392;BME280;22639;42.690;23.356;2022-07-23T07:25:00;52988.91;;;-141.22;100.00
36392;BME280;22639;42.690;23.356;2022-07-23T07:27:26;52988.91;;;-141.22;100.00
36392;BME280;22639;42.690;23.356;2022-07-23T07:29:51;52988.91;;;-141.22;100.00
36392;BME280;22639;42.690;23.356;2022-07-23T07:32:17;52988.91;;;-141.22;100.00
36392;BME280;22639;42.690;23.356;2022-07-23T07:34:42;52988.91;;;-141.22;100.00
36392;BME280;22639;42.690;23.356;2022-07-23T07:37:08;52988.91;;;-141.22;100.00
36392;BME280;22639;42.690;23.356;2022-07-23T07:39:33;52988.91;;;-141.22;100.00
36392;BME280;22639;42.690;23.356;2022-07-23T07:41:58;52988.91;;;-141.22;100.00
36392;BME280;22639;42.690;23.356;2022-07-23T07:44:24;52988.91;;;-141.22;100.00
36392;BME280;22639;42.690;23.356;2022-07-23T07:46:50;52988.91;;;-141.22;100.00
36392;BME280;22639;42.690;23.356;2022-07-23T07:49:15;52988.91;;;-141.22;100.00
36392;BME280;22639;42.690;23.356;2022-07-23T07:51:44;52988.91;;;-141.22;100.00
36392;BME280;22639;42.690;23.356;2022-07-23T07:54:09;52988.91;;;-141.22;100.00
36392;BME280;22639;42.690;23.356;2022-07-23T07:56:34;52988.91;;;-141.22;100.00
36392;BME280;22639;42.690;23.356;2022-07-23T07:59:00;52988.91;;;-141.22;100.00
36392;BME280;22639;42.690;23.356;2022-07-23T08:01:26;52988.91;;;-141.22;100.00
36392;BME280;22639;42.690;23.356;2022-07-23T08:03:51;52988.91;;;-141.22;100.00
36392;BME280;22639;42.690;23.356;2022-07-23T08:06:17;52988.91;;;-141.22;100.00
36392;BME280;22639;42.690;23.356;2022-07-23T08:08:42;52988.91;;;-141.22;100.00
36392;BME280;22639;42.690;23.356;2022-07-23T08:11:08;52988.91;;;-141.22;100.00
36392;BME280;22639;42.690;23.356;2022-07-23T08:13:33;52988.91;;;-141.22;100.00
36392;BME280;22639;42.690;23.356;2022-07-23T08:15:59;52988.91;;;-141.22;100.00
36392;BME280;22639;42.690;23.356;2022-07-23T08:18:24;52988.91;;;-141.22;100.00
36392;BME280;22639;42.690;23.356;2022-07-23T08:20:50;52988.91;;;-141.22;100.00
36392;BME280;22639;42.690;23.356;2022-07-23T08:23:15;52988.91;;;-141.22;100.00
36392;BME280;22639;42.690;23.356;2022-07-23T08:25:44;52988.91;;;-141.22;100.00
36392;BME280;22639;42.690;23.356;2022-07-23T08:28:12;52988.91;;;-141.22;100.00
36392;BME280;22639;42.690;23.356;2022-07-23T08:30:39;52988.91;;;-141.22;100.00
36392;BME280;22639;42.690;23.356;2022-07-23T08:33:07;52988.91;;;-141.22;100.00
36392;BME280;22639;42.690;23.356;2022-07-23T08:35:47;52988.91;;;-141.22;100.00
36392;BME280;22639;42.690;23.356;2022-07-23T08:38:14;52988.91;;;-141.22;100.00
36392;BME280;22639;42.690;23.356;2022-07-23T08:40:43;52988.91;;;-141.22;100.00
36392;BME280;22639;42.690;23.356;2022-07-23T08:43:11;52988.91;;;-141.22;100.00
36392;BME280;22639;42.690;23.356;2022-07-23T08:45:40;52988.91;;;-141.22;100.00
36392;BME280;22639;42.690;23.356;2022-07-23T08:48:08;52988.91;;;-141.22;100.00
36392;BME280;22639;42.690;23.356;2022-07-23T08:50:36;52988.91;;;-141.22;100.00
36392;BME280;22639;42.690;23.356;2022-07-23T08:53:05;52988.91;;;-141.22;100.00
36392;BME280;22639;42.690;23.356;2022-07-23T08:55:31;52988.91;;;-141.22;100.00
36392;BME280;22639;42.690;23.356;2022-07-23T08:57:56;52988.91;;;-141.22;100.00
36392;BME280;22639;42.690;23.356;2022-07-23T09:00:22;52988.91;;;-141.22;100.00
36392;BME280;22639;42.690;23.356;2022-07-23T09:02:49;52988.91;;;-141.22;100.00
36392;BME280;22639;42.690;23.356;2022-07-23T09:05:15;52988.91;;;-141.22;100.00
36392;BME280;22639;42.690;23.356;2022-07-23T09:10:54;52988.91;;;-141.22;100.00
36392;BME280;22639;42.690;23.356;2022-07-23T09:13:34;52988.91;;;-141.22;100.00
36392;BME280;22639;42.690;23.356;2022-07-23T09:16:14;52988.91;;;-141.22;100.00
36392;BME280;22639;42.690;23.356;2022-07-23T09:21:12;52988.91;;;-141.22;100.00
36392;BME280;22639;42.690;23.356;2022-07-23T09:26:38;52988.91;;;-141.22;100.00
36392;BME280;22639;42.690;23.356;2022-07-23T09:29:17;52988.91;;;-141.22;100.00
36392;BME280;22639;42.690;23.356;2022-07-23T09:34:20;52988.91;;;-141.22;100.00
36392;BME280;22639;42.690;23.356;2022-07-23T09:36:46;52988.91;;;-141.22;100.00
36392;BME280;22639;42.690;23.356;2022-07-23T09:39:13;52988.91;;;-141.22;100.00
36392;BME280;22639;42.690;23.356;2022-07-23T09:41:46;52988.91;;;-141.22;100.00
36392;BME280;22639;42.690;23.356;2022-07-23T09:44:16;52988.91;;;-141.22;100.00
36392;BME280;22639;42.690;23.356;2022-07-23T09:46:44;52988.91;;;-141.22;100.00
36392;BME280;22639;42.690;23.356;2022-07-23T09:49:14;52988.91;;;-141.22;100.00
36392;BME280;22639;42.690;23.356;2022-07-23T09:51:48;52988.91;;;-141.22;100.00
36392;BME280;22639;42.690;23.356;2022-07-23T09:54:40;52988.91;;;-141.22;100.00
36392;BME280;22639;42.690;23.356;2022-07-23T09:57:10;52988.91;;;-141.22;100.00
36392;BME280;22639;42.690;23.356;2022-07-23T09:59:41;52988.91;;;-141.22;100.00
36392;BME280;22639;42.690;23.356;2022-07-23T10:02:08;52988.91;;;-141.22;100.00
36392;BME280;22639;42.690;23.356;2022-07-23T10:04:34;52988.91;;;-141.22;100.00
36392;BME280;22639;42.690;23.356;2022-07-23T10:07:02;52988.91;;;-141.22;100.00
36392;BME280;22639;42.690;23.356;2022-07-23T10:09:31;52988.91;;;-141.22;100.00
36392;BME280;22639;42.690;23.356;2022-07-23T10:12:01;52988.91;;;-141.22;100.00
36392;BME280;22639;42.690;23.356;2022-07-23T10:14:39;52988.91;;;-141.22;100.00
36392;BME280;22639;42.690;23.356;2022-07-23T10:17:06;52988.91;;;-141.22;100.00
36392;BME280;22639;42.690;23.356;2022-07-23T10:19:32;52988.91;;;-141.22;100.00
36392;BME280;22639;42.690;23.356;2022-07-23T10:22:04;52988.91;;;-141.22;100.00
36392;BME280;22639;42.690;23.356;2022-07-23T10:24:44;52988.91;;;-141.22;100.00
36392;BME280;22639;42.690;23.356;2022-07-23T10:30:06;52988.91;;;-141.22;100.00
36392;BME280;22639;42.690;23.356;2022-07-23T10:37:59;52988.91;;;-141.22;100.00
36392;BME280;22639;42.690;23.356;2022-07-23T10:40:26;52988.91;;;-141.22;100.00
36392;BME280;22639;42.690;23.356;2022-07-23T10:42:59;52988.91;;;-141.22;100.00
36392;BME280;22639;42.690;23.356;2022-07-23T10:45:35;52988.91;;;-141.22;100.00
36392;BME280;22639;42.690;23.356;2022-07-23T10:48:18;52988.91;;;-141.22;100.00
36392;BME280;22639;42.690;23.356;2022-07-23T10:51:06;52988.91;;;-141.22;100.00
36392;BME280;22639;42.690;23.356;2022-07-23T10:53:55;52988.91;;;-141.22;100.00
36392;BME280;22639;42.690;23.356;2022-07-23T10:56:50;52988.91;;;-141.22;100.00
36392;BME280;22639;42.690;23.356;2022-07-23T10:59:29;52988.91;;;-141.22;100.00
36392;BME280;22639;42.690;23.356;2022-07-23T11:02:20;52988.91;;;-141.22;100.00
36392;BME280;22639;42.690;23.356;2022-07-23T11:04:53;52988.91;;;-141.22;100.00
36392;BME280;22639;42.690;23.356;2022-07-23T11:07:21;52988.91;;;-141.22;100.00
36392;BME280;22639;42.690;23.356;2022-07-23T11:09:47;52988.91;;;-141.22;100.00
36392;BME280;22639;42.690;23.356;2022-07-23T11:17:23;52988.91;;;-141.22;100.00
36392;BME280;22639;42.690;23.356;2022-07-23T11:22:38;52988.91;;;-141.22;100.00
36392;BME280;22639;42.690;23.356;2022-07-23T11:25:04;52988.91;;;-141.22;100.00
36392;BME280;22639;42.690;23.356;2022-07-23T11:27:41;52988.91;;;-141.22;100.00
36392;BME280;22639;42.690;23.356;2022-07-23T11:30:08;52988.91;;;-141.22;100.00
36392;BME280;22639;42.690;23.356;2022-07-23T11:32:40;52988.91;;;-141.22;100.00
36392;BME280;22639;42.690;23.356;2022-07-23T11:37:46;52988.91;;;-141.22;100.00
36392;BME280;22639;42.690;23.356;2022-07-23T11:40:13;52988.91;;;-141.22;100.00
36392;BME280;22639;42.690;23.356;2022-07-23T11:42:50;52988.91;;;-141.22;100.00
36392;BME280;22639;42.690;23.356;2022-07-23T11:45:16;52988.91;;;-141.22;100.00
36392;BME280;22639;42.690;23.356;2022-07-23T11:47:41;52988.91;;;-141.22;100.00
36392;BME280;22639;42.690;23.356;2022-07-23T11:50:07;52988.91;;;-141.22;100.00
36392;BME280;22639;42.690;23.356;2022-07-23T11:52:33;52988.91;;;-141.22;100.00
36392;BME280;22639;42.690;23.356;2022-07-23T11:55:01;52988.91;;;-141.22;100.00
36392;BME280;22639;42.690;23.356;2022-07-23T11:57:30;52988.91;;;-141.22;100.00
36392;BME280;22639;42.690;23.356;2022-07-23T12:02:29;52988.91;;;-141.22;100.00
36392;BME280;22639;42.690;23.356;2022-07-23T12:04:54;52988.91;;;-141.22;100.00
36392;BME280;22639;42.690;23.356;2022-07-23T12:12:54;52988.91;;;-141.22;100.00
36392;BME280;22639;42.690;23.356;2022-07-23T12:15:41;52988.91;;;-141.22;100.00
36392;BME280;22639;42.690;23.356;2022-07-23T12:18:09;52988.91;;;-141.22;100.00
36392;BME280;22639;42.690;23.356;2022-07-23T12:20:50;52988.91;;;-141.22;100.00
36392;BME280;22639;42.690;23.356;2022-07-23T12:23:18;52988.91;;;-141.22;100.00
36392;BME280;22639;42.690;23.356;2022-07-23T12:25:46;52988.91;;;-141.22;100.00
36392;BME280;22639;42.690;23.356;2022-07-23T12:28:19;52988.91;;;-141.22;100.00
36392;BME280;22639;42.690;23.356;2022-07-23T12:30:53;52988.91;;;-141.22;100.00
36392;BME280;22639;42.690;23.356;2022-07-23T12:33:30;52988.91;;;-141.22;100.00
36392;BME280;22639;42.690;23.356;2022-07-23T12:36:00;52988.91;;;-141.22;100.00
36392;BME280;22639;42.690;23.356;2022-07-23T12:38:28;52988.91;;;-141.22;100.00
36392;BME280;22639;42.690;23.356;2022-07-23T12:40:54;52988.91;;;-141.22;100.00
36392;BME280;22639;42.690;23.356;2022-07-23T12:43:36;52988.91;;;-141.22;100.00
36392;BME280;22639;42.690;23.356;2022-07-23T12:53:46;52988.91;;;-141.22;100.00
36392;BME280;22639;42.690;23.356;2022-07-23T12:56:29;52988.91;;;-141.22;100.00
36392;BME280;22639;42.690;23.356;2022-07-23T13:01:35;52988.91;;;-141.22;100.00
36392;BME280;22639;42.690;23.356;2022-07-23T13:06:45;52988.91;;;-141.22;100.00
36392;BME280;22639;42.690;23.356;2022-07-23T13:09:19;52988.91;;;-141.22;100.00
36392;BME280;22639;42.690;23.356;2022-07-23T13:11:45;52988.91;;;-141.22;100.00
36392;BME280;22639;42.690;23.356;2022-07-23T13:14:12;52988.91;;;-141.22;100.00
36392;BME280;22639;42.690;23.356;2022-07-23T13:16:38;52988.91;;;-141.22;100.00